Argo — SMOH — position and weather

sailwx.info

Track history (hours):
 
Tides and Currents Weather Stations Pressure Air Temp Water Temp Dewpoint Dewpoint Depression Visibility Wind Speed Wind Dir Waves Ship Positions

Argo

Last reported at 2015-Sep-02 12:33 UTC. Time now 2015-Sep-04 14:34 UTC.
Position N 56°08' E 015°33'.

Length 26 m; draft 2 m.

Type: Military. MMSI: 265591600.

Date/timePositionNaut miles runAvg speedWind from/ knotsBaromVisibWave heightAir tempDewpointWater temp
2015-Sep-02 12:33N 56°08' E 015°33'1 0.7
2015-Sep-02 11:28N 56°08' E 015°32'2 0.8
2015-Sep-02 08:32N 56°09' E 015°36'0 0.2
2015-Sep-02 06:33N 56°09' E 015°36'0 0.0
2015-Sep-01 19:22N 56°09' E 015°36'2 2.3
2015-Sep-01 18:33N 56°08' E 015°33'2 1.5
2015-Sep-01 17:31N 56°09' E 015°35'0 0.0
2015-Sep-01 16:31N 56°09' E 015°35'63 9.0
2015-Sep-01 09:33N 56°60' E 016°42'1919.5
2015-Sep-01 08:34N 57°19' E 016°49'1615.7
2015-Sep-01 07:34N 57°34' E 016°42'11 0.9
2015-Aug-31 19:33N 57°45' E 016°40'61 9.7
2015-Aug-31 13:18N 58°41' E 017°27'  
2015-Aug-27 06:04N 59°22' E 018°17'612.5
2015-Aug-27 05:34N 59°19' E 018°06'1 0.0
2015-Aug-26 14:10N 59°20' E 018°05'  
Track history (hours):
 
Tides and Currents Weather Stations Pressure Air Temp Water Temp Dewpoint Dewpoint Depression Visibility Wind Speed Wind Dir Waves Ship Positions

Argo

Last reported at 2015-Sep-02 12:33 UTC. Time now 2015-Sep-04 14:34 UTC.
Position N 56°08' E 015°33'.

Length 26 m; draft 2 m.

Type: Military. MMSI: 265591600.

Date/timePositionNaut miles runAvg speedWind from/ knotsBaromVisibWave heightAir tempDewpointWater temp
2015-Sep-02 12:33N 56°08' E 015°33'1 0.7
2015-Sep-02 11:28N 56°08' E 015°32'2 0.8
2015-Sep-02 08:32N 56°09' E 015°36'0 0.2
2015-Sep-02 06:33N 56°09' E 015°36'0 0.0
2015-Sep-01 19:22N 56°09' E 015°36'2 2.3
2015-Sep-01 18:33N 56°08' E 015°33'2 1.5
2015-Sep-01 17:31N 56°09' E 015°35'0 0.0
2015-Sep-01 16:31N 56°09' E 015°35'63 9.0
2015-Sep-01 09:33N 56°60' E 016°42'1919.5
2015-Sep-01 08:34N 57°19' E 016°49'1615.7
2015-Sep-01 07:34N 57°34' E 016°42'11 0.9
2015-Aug-31 19:33N 57°45' E 016°40'61 9.7
2015-Aug-31 13:18N 58°41' E 017°27'  
2015-Aug-27 06:04N 59°22' E 018°17'612.5
2015-Aug-27 05:34N 59°19' E 018°06'1 0.0
2015-Aug-26 14:10N 59°20' E 018°05'  

Dump ship's entire track history